Time;durP1;ratioP1;P1;durP2;ratioP2;P2;SDS_P1;SDS_P2;PMS_P1;PMS_P2;Temp;Humidity;BMP_temperature;BMP_pressure;BME280_temperature;BME280_humidity;BME280_pressure;Samples;Min_cycle;Max_cycle;Signal;HPM_P1;HPM_P2
2022/04/27 00:00:06;;;;;;;13.53;9.03;;;;;;;7.88;66.13;101671.81;687765;28;1190;-82
2022/04/27 00:00:33;;;;;;;12.73;9.25;;;;;;;7.87;66.16;101666.50;690167;28;1521;-82
2022/04/27 00:00:54;;;;;;;11.77;9.07;;;;;;;7.86;66.61;101668.19;689947;28;1512;-82
2022/04/27 00:01:15;;;;;;;12.50;9.05;;;;;;;7.79;66.21;101655.69;690068;28;1324;-82
2022/04/27 00:01:36;;;;;;;12.25;8.90;;;;;;;7.83;66.60;101670.66;694356;28;1130;-82
2022/04/27 00:01:57;;;;;;;13.07;8.80;;;;;;;7.77;66.40;101660.81;693302;28;1132;-82
2022/04/27 00:02:18;;;;;;;12.63;8.80;;;;;;;7.86;66.42;101673.41;692930;28;1066;-82
2022/04/27 00:02:39;;;;;;;13.27;8.95;;;;;;;7.76;66.43;101652.94;693874;28;1525;-82
2022/04/27 00:03:01;;;;;;;13.27;9.87;;;;;;;7.77;66.74;101662.50;682522;29;1268;-82
2022/04/27 00:03:22;;;;;;;15.25;9.90;;;;;;;7.81;66.44;101670.56;685336;28;749;-82
2022/04/27 00:03:43;;;;;;;14.35;9.75;;;;;;;7.76;66.53;101663.34;690277;28;1464;-82
2022/04/27 00:04:25;;;;;;;13.90;9.52;;;;;;;7.90;66.24;101683.16;690527;28;1193;-83
2022/04/27 00:04:46;;;;;;;14.05;10.02;;;;;;;7.83;66.74;101660.25;690066;28;1595;-82
2022/04/27 00:05:08;;;;;;;16.13;10.00;;;;;;;7.85;66.84;101666.41;690540;28;1156;-82
2022/04/27 00:05:29;;;;;;;16.10;9.68;;;;;;;7.82;66.10;101658.47;690911;28;1256;-82
2022/04/27 00:05:50;;;;;;;17.08;9.40;;;;;;;7.86;66.56;101665.59;691991;28;1207;-82
2022/04/27 00:06:11;;;;;;;16.10;9.30;;;;;;;7.85;66.58;101666.41;693652;28;1729;-82
2022/04/27 00:06:31;;;;;;;13.95;9.40;;;;;;;7.84;66.53;101674.16;697599;28;1591;-82
2022/04/27 00:06:52;;;;;;;12.98;9.20;;;;;;;7.77;66.39;101666.03;693201;28;1067;-82
2022/04/27 00:07:13;;;;;;;12.25;8.75;;;;;;;7.81;66.65;101675.75;693375;28;1227;-82
2022/04/27 00:07:33;;;;;;;11.32;8.50;;;;;;;7.78;66.87;101666.91;692140;28;1602;-83
2022/04/27 00:07:55;;;;;;;11.30;8.73;;;;;;;7.75;66.69;101666.75;690360;28;1750;-82
2022/04/27 00:08:15;;;;;;;11.15;9.00;;;;;;;7.78;66.50;101674.69;684436;28;1470;-82
2022/04/27 00:08:37;;;;;;;12.15;9.20;;;;;;;7.68;66.84;101660.34;690473;28;1099;-82
2022/04/27 00:08:58;;;;;;;15.30;9.50;;;;;;;7.71;66.54;101669.97;695919;28;972;-82
2022/04/27 00:09:18;;;;;;;16.25;9.40;;;;;;;7.69;66.34;101664.72;696023;28;956;-82
2022/04/27 00:09:50;;;;;;;15.73;9.60;;;;;;;7.76;66.75;101684.13;692530;28;1266;-82
2022/04/27 00:10:10;;;;;;;16.20;9.43;;;;;;;7.63;66.61;101657.47;687737;28;1190;-82
2022/04/27 00:10:31;;;;;;;14.95;9.00;;;;;;;7.65;66.47;101671.44;690299;28;1237;-82
2022/04/27 00:10:54;;;;;;;17.23;9.43;;;;;;;7.61;66.84;101660.81;690407;28;1149;-82
2022/04/27 00:11:15;;;;;;;17.23;9.90;;;;;;;7.63;66.90;101667.84;690575;28;1005;-82
2022/04/27 00:11:36;;;;;;;17.42;9.73;;;;;;;7.62;66.39;101668.66;692037;28;1079;-82
2022/04/27 00:12:00;;;;;;;15.00;9.50;;;;;;;7.70;66.74;101683.78;690442;28;1231;-82
2022/04/27 00:12:21;;;;;;;14.68;9.00;;;;;;;7.59;66.62;101671.09;687641;28;1078;-82
2022/04/27 00:12:42;;;;;;;12.00;9.07;;;;;;;7.62;66.52;101679.06;690060;28;1435;-82
2022/04/27 00:13:02;;;;;;;12.53;9.30;;;;;;;7.58;66.88;101666.72;690421;28;1246;-82
2022/04/27 00:13:23;;;;;;;12.60;9.88;;;;;;;7.56;66.73;101662.25;685153;28;1378;-82
2022/04/27 00:13:43;;;;;;;13.70;10.20;;;;;;;7.57;66.55;101670.13;692906;28;1112;-82
2022/04/27 00:14:04;;;;;;;13.93;10.00;;;;;;;7.56;66.94;101665.75;693194;28;1208;-82
2022/04/27 00:14:25;;;;;;;15.70;9.95;;;;;;;7.62;66.69;101678.19;690001;28;1204;-82
2022/04/27 00:14:47;;;;;;;15.82;10.15;;;;;;;7.58;66.92;101671.91;687756;28;1065;-82
2022/04/27 00:15:08;;;;;;;17.77;10.50;;;;;;;7.56;66.82;101673.56;687609;28;1450;-82
2022/04/27 00:15:28;;;;;;;17.95;10.52;;;;;;;7.59;67.10;101681.50;686957;28;1073;-82
2022/04/27 00:15:49;;;;;;;17.17;10.30;;;;;;;7.53;66.64;101673.34;685021;28;1048;-82
2022/04/27 00:16:10;;;;;;;16.60;10.40;;;;;;;7.53;66.88;101673.34;690367;28;1217;-82
2022/04/27 00:16:30;;;;;;;15.02;10.07;;;;;;;7.57;66.60;101680.53;687714;28;1177;-82
2022/04/27 00:16:51;;;;;;;14.95;10.38;;;;;;;7.48;67.11;101662.72;687806;28;1299;-82
2022/04/27 00:17:11;;;;;;;16.03;10.07;;;;;;;7.55;66.62;101679.53;687812;28;972;-82
2022/04/27 00:17:32;;;;;;;17.40;10.27;;;;;;;7.51;66.81;101680.19;687552;28;1477;-83
2022/04/27 00:17:53;;;;;;;17.70;10.02;;;;;;;7.50;66.88;101676.69;693044;28;1539;-82
2022/04/27 00:18:13;;;;;;;14.80;10.33;;;;;;;7.51;66.75;101672.38;687867;28;1000;-82
2022/04/27 00:18:34;;;;;;;12.60;10.03;;;;;;;7.47;66.96;101676.53;688911;28;1166;-82
2022/04/27 00:18:55;;;;;;;12.60;10.60;;;;;;;7.46;66.84;101666.03;690229;28;1646;-82
2022/04/27 00:19:15;;;;;;;12.68;10.35;;;;;;;7.44;66.76;101670.25;687839;28;1167;-82
2022/04/27 00:19:36;;;;;;;13.13;10.30;;;;;;;7.46;66.75;101668.63;690052;28;1007;-82
2022/04/27 00:19:56;;;;;;;13.00;9.77;;;;;;;7.44;66.79;101668.56;690458;28;1977;-83
2022/04/27 00:20:17;;;;;;;15.17;10.20;;;;;;;7.49;66.97;101674.91;687768;28;1251;-83
2022/04/27 00:20:37;;;;;;;15.15;10.00;;;;;;;7.53;67.00;101688.94;687605;28;1281;-82
2022/04/27 00:20:58;;;;;;;15.70;10.03;;;;;;;7.43;66.58;101669.34;685026;28;1151;-83
2022/04/27 00:21:18;;;;;;;14.23;9.70;;;;;;;7.43;67.12;101669.34;690395;28;1189;-82
2022/04/27 00:21:51;;;;;;;14.70;9.63;;;;;;;7.49;67.02;101674.03;689875;28;1138;-82
2022/04/27 00:22:13;;;;;;;14.10;9.43;;;;;;;7.48;67.16;101680.91;692805;28;1481;-82
2022/04/27 00:22:36;;;;;;;13.73;9.70;;;;;;;7.46;67.06;101679.03;695724;28;1324;-82
2022/04/27 00:22:56;;;;;;;14.65;10.20;;;;;;;7.42;67.17;101671.88;692316;28;1281;-82
2022/04/27 00:23:17;;;;;;;15.23;10.05;;;;;;;7.39;66.97;101668.28;693259;28;992;-82
2022/04/27 00:23:38;;;;;;;15.10;9.63;;;;;;;7.43;66.69;101684.06;689253;28;1238;-82
2022/04/27 00:23:58;;;;;;;15.13;9.60;;;;;;;7.42;66.84;101666.69;692957;28;1891;-82
2022/04/27 00:24:19;;;;;;;15.50;9.90;;;;;;;7.43;66.59;101678.88;690537;28;1271;-82
2022/04/27 00:24:40;;;;;;;16.07;9.93;;;;;;;7.46;66.80;101679.03;695879;28;1107;-82
2022/04/27 00:25:02;;;;;;;15.67;9.87;;;;;;;7.49;67.12;101687.88;695905;28;1276;-82
2022/04/27 00:25:23;;;;;;;13.80;9.50;;;;;;;7.40;67.18;101670.09;690510;28;1330;-82
2022/04/27 00:25:44;;;;;;;13.00;9.60;;;;;;;7.40;66.59;101675.31;690312;28;1219;-81
2022/04/27 00:26:05;;;;;;;12.40;9.00;;;;;;;7.42;66.69;101679.69;692994;28;1215;-83
2022/04/27 00:26:26;;;;;;;13.57;9.60;;;;;;;7.39;67.02;101673.47;690635;28;1181;-82
2022/04/27 00:26:46;;;;;;;13.80;9.27;;;;;;;7.46;66.74;101684.22;692241;28;1753;-82
2022/04/27 00:27:07;;;;;;;14.47;9.40;;;;;;;7.35;66.67;101663.75;698520;28;1134;-82
2022/04/27 00:27:27;;;;;;;14.47;9.07;;;;;;;7.39;66.69;101676.06;693504;28;1253;-82
2022/04/27 00:27:48;;;;;;;15.13;9.18;;;;;;;7.40;67.01;101679.59;698368;28;1153;-82
2022/04/27 00:28:09;;;;;;;15.00;9.50;;;;;;;7.39;66.76;101678.69;695716;28;1142;-82
2022/04/27 00:28:29;;;;;;;15.45;9.77;;;;;;;7.38;67.19;101674.28;691091;28;1024;-82
2022/04/27 00:28:50;;;;;;;14.10;9.60;;;;;;;7.44;66.88;101686.75;687643;28;1695;-82
2022/04/27 00:29:11;;;;;;;14.80;9.55;;;;;;;7.33;66.81;101661.88;690423;28;1087;-82
2022/04/27 00:29:32;;;;;;;13.70;9.77;;;;;;;7.36;66.61;101673.31;695244;28;1526;-82
2022/04/27 00:29:54;;;;;;;14.88;10.30;;;;;;;7.40;66.59;101671.78;690273;28;998;-82
2022/04/27 00:30:15;;;;;;;14.65;10.27;;;;;;;7.34;66.52;101671.44;691530;28;1223;-82
2022/04/27 00:30:36;;;;;;;14.50;10.10;;;;;;;7.35;66.85;101671.53;690417;28;1091;-82
2022/04/27 00:30:56;;;;;;;14.77;10.23;;;;;;;7.36;66.81;101683.72;690418;28;1110;-82
2022/04/27 00:31:18;;;;;;;16.88;10.45;;;;;;;7.33;67.01;101662.78;687712;28;1414;-82
2022/04/27 00:31:38;;;;;;;16.90;10.30;;;;;;;7.34;66.62;101680.16;686893;28;1267;-82
2022/04/27 00:31:59;;;;;;;16.25;10.10;;;;;;;7.36;66.52;101678.53;693009;28;1807;-82
2022/04/27 00:32:19;;;;;;;14.47;9.83;;;;;;;7.35;67.26;101671.53;693262;28;1238;-81
2022/04/27 00:32:40;;;;;;;15.02;9.85;;;;;;;7.37;67.09;101674.22;689618;28;1503;-82
2022/04/27 00:33:01;;;;;;;15.73;9.97;;;;;;;7.35;66.70;101676.72;693108;28;1027;-82
2022/04/27 00:33:21;;;;;;;14.60;9.77;;;;;;;7.30;67.00;101670.38;687771;28;910;-82
2022/04/27 00:33:42;;;;;;;15.48;9.90;;;;;;;7.35;67.02;101681.94;685084;28;1191;-82
2022/04/27 00:34:03;;;;;;;14.93;9.93;;;;;;;7.37;66.99;101682.03;687554;28;1222;-82
2022/04/27 00:34:25;;;;;;;16.48;10.50;;;;;;;7.36;66.87;101686.31;687813;28;779;-82
2022/04/27 00:34:45;;;;;;;14.55;10.13;;;;;;;7.31;67.25;101679.94;690355;28;1244;-82
2022/04/27 00:35:08;;;;;;;16.27;10.45;;;;;;;7.30;67.19;101677.28;690400;28;1338;-82
2022/04/27 00:35:28;;;;;;;16.17;10.27;;;;;;;7.30;66.87;101678.16;691511;28;1412;-82
2022/04/27 00:35:49;;;;;;;17.00;10.37;;;;;;;7.27;66.79;101672.81;687689;28;966;-82
2022/04/27 00:36:10;;;;;;;15.50;9.85;;;;;;;7.34;67.16;101689.63;690326;28;936;-82
2022/04/27 00:36:31;;;;;;;14.93;9.95;;;;;;;7.36;67.17;101683.72;686679;28;1296;-82
2022/04/27 00:36:52;;;;;;;14.70;10.00;;;;;;;7.38;67.04;101691.59;687509;28;1671;-83
2022/04/27 00:37:12;;;;;;;18.60;10.20;;;;;;;7.31;67.28;101679.06;687778;28;1052;-82
2022/04/27 00:37:34;;;;;;;17.85;10.30;;;;;;;7.38;67.20;101689.88;691590;28;1103;-82
2022/04/27 00:37:54;;;;;;;18.15;10.35;;;;;;;7.29;67.20;101675.50;687764;28;1235;-82
2022/04/27 00:38:15;;;;;;;14.40;10.20;;;;;;;7.37;67.06;101690.69;687782;28;973;-82
2022/04/27 00:38:36;;;;;;;12.70;9.90;;;;;;;7.32;66.64;101681.78;690284;28;1447;-82
2022/04/27 00:38:56;;;;;;;13.07;10.20;;;;;;;7.32;66.77;101686.06;693245;28;1147;-82
2022/04/27 00:39:17;;;;;;;13.95;10.05;;;;;;;7.32;66.96;101683.47;695827;28;1174;-83
2022/04/27 00:39:38;;;;;;;13.40;10.20;;;;;;;7.33;66.89;101687.84;695186;28;1366;-82
2022/04/27 00:39:59;;;;;;;13.60;10.20;;;;;;;7.25;66.91;101674.44;693007;28;1954;-82
2022/04/27 00:40:19;;;;;;;13.63;10.07;;;;;;;7.24;66.93;101670.03;695953;28;1161;-82
2022/04/27 00:40:40;;;;;;;14.30;10.37;;;;;;;7.30;67.16;101688.56;693367;28;1429;-82
2022/04/27 00:41:00;;;;;;;15.30;10.52;;;;;;;7.32;67.11;101689.56;693084;28;1173;-81
2022/04/27 00:41:21;;;;;;;15.50;10.90;;;;;;;7.32;66.80;101686.97;693136;28;1131;-82
2022/04/27 00:41:58;;;;;;;14.57;10.30;;;;;;;7.27;66.98;101688.41;692442;28;1577;-82
2022/04/27 00:42:24;;;;;;;11.10;9.52;;;;;;;7.28;66.80;101685.00;693015;28;1284;-82
2022/04/27 00:42:44;;;;;;;12.45;9.60;;;;;;;7.23;67.05;101681.22;695752;28;1207;-83
2022/04/27 00:43:05;;;;;;;14.65;9.80;;;;;;;7.30;66.96;101692.88;690557;28;1211;-82
2022/04/27 00:43:41;;;;;;;14.90;9.73;;;;;;;7.20;66.80;101681.06;690635;28;1152;-82
2022/04/27 00:44:01;;;;;;;13.15;9.82;;;;;;;7.19;66.77;101680.16;687619;28;1105;-83
2022/04/27 00:44:22;;;;;;;15.93;10.18;;;;;;;7.19;67.06;101674.09;687676;28;728;-82
2022/04/27 00:44:44;;;;;;;18.70;10.27;;;;;;;7.21;67.36;101685.44;692735;28;1165;-82
2022/04/27 00:45:05;;;;;;;18.30;9.77;;;;;;;7.18;66.72;101672.31;693153;28;1042;-82
2022/04/27 00:45:26;;;;;;;15.50;9.90;;;;;;;7.21;66.80;101682.84;693015;28;1091;-82
2022/04/27 00:45:46;;;;;;;14.02;9.75;;;;;;;7.20;67.10;101681.06;693056;28;1749;-82
2022/04/27 00:46:11;;;;;;;13.00;9.90;;;;;;;7.24;67.05;101690.81;690419;28;1255;-82
2022/04/27 00:46:31;;;;;;;12.18;9.88;;;;;;;7.22;67.22;101692.41;686375;28;1084;-82
2022/04/27 00:46:52;;;;;;;11.80;9.93;;;;;;;7.13;67.08;101680.72;685041;28;1095;-82
2022/04/27 00:47:14;;;;;;;13.43;9.90;;;;;;;7.16;66.97;101677.41;690340;28;1185;-83
2022/04/27 00:47:34;;;;;;;14.60;9.93;;;;;;;7.20;66.33;101683.66;690846;28;1485;-82
2022/04/27 00:47:55;;;;;;;16.20;9.95;;;;;;;7.15;67.17;101677.31;692966;28;1535;-82
2022/04/27 00:48:16;;;;;;;14.13;9.50;;;;;;;7.22;67.14;101689.81;691997;28;1482;-83
2022/04/27 00:48:41;;;;;;;15.07;9.60;;;;;;;7.24;67.10;101689.09;687625;28;1449;-83
2022/04/27 00:49:02;;;;;;;15.10;10.15;;;;;;;7.22;66.91;101692.41;681869;29;1442;-82
2022/04/27 00:49:23;;;;;;;18.30;10.40;;;;;;;7.12;67.29;101672.81;682078;29;1104;-82
2022/04/27 00:49:54;;;;;;;17.55;10.70;;;;;;;7.17;67.40;101676.59;686537;28;1116;-82
2022/04/27 00:50:16;;;;;;;16.67;10.68;;;;;;;7.11;67.35;101674.53;695706;28;1349;-82
2022/04/27 00:50:37;;;;;;;16.67;10.77;;;;;;;7.16;66.81;101681.69;693031;28;1345;-82
2022/04/27 00:51:02;;;;;;;18.02;10.40;;;;;;;7.22;67.04;101692.41;690287;28;1214;-82
2022/04/27 00:51:24;;;;;;;19.23;10.50;;;;;;;7.19;66.92;101694.84;684895;28;1961;-82
2022/04/27 00:51:45;;;;;;;21.00;10.32;;;;;;;7.17;67.02;101692.16;687548;28;1689;-82
2022/04/27 00:52:06;;;;;;;18.60;10.40;;;;;;;7.11;66.65;101681.41;687502;28;1129;-82
2022/04/27 00:52:27;;;;;;;17.70;10.50;;;;;;;7.16;66.87;101690.38;693420;28;1147;-82
2022/04/27 00:52:48;;;;;;;15.82;10.10;;;;;;;7.17;66.82;101686.09;698130;28;1227;-82
2022/04/27 00:53:09;;;;;;;14.05;10.27;;;;;;;7.09;67.35;101677.84;687597;28;1413;-82
2022/04/27 00:53:29;;;;;;;13.13;10.25;;;;;;;7.13;67.17;101685.91;688922;28;1124;-82
2022/04/27 00:53:51;;;;;;;13.55;10.20;;;;;;;7.08;66.79;101681.25;698573;28;1144;-82
2022/04/27 00:54:13;;;;;;;13.70;9.95;;;;;;;7.13;67.00;101685.03;698498;28;950;-82
2022/04/27 00:54:35;;;;;;;15.75;10.15;;;;;;;7.08;66.92;101682.16;693016;28;988;-82
2022/04/27 00:54:55;;;;;;;14.80;10.07;;;;;;;7.07;66.92;101679.47;692922;28;1677;-82
2022/04/27 00:55:16;;;;;;;13.93;10.45;;;;;;;7.05;66.77;101676.78;690347;28;938;-82
2022/04/27 00:55:36;;;;;;;12.13;10.00;;;;;;;7.08;66.75;101692.56;690925;28;1147;-82
2022/04/27 00:55:58;;;;;;;12.80;10.10;;;;;;;7.05;67.08;101679.38;690472;28;1096;-82
2022/04/27 00:56:21;;;;;;;13.05;9.93;;;;;;;7.10;66.78;101696.13;690437;28;1086;-82
2022/04/27 00:56:42;;;;;;;13.13;9.85;;;;;;;7.06;66.80;101681.16;687536;28;1404;-82
2022/04/27 00:57:04;;;;;;;13.27;9.60;;;;;;;7.04;66.99;101680.19;690357;28;1137;-81
2022/04/27 00:57:25;;;;;;;13.07;9.30;;;;;;;7.11;66.89;101697.00;690382;28;1214;-82
2022/04/27 00:57:47;;;;;;;14.98;9.60;;;;;;;7.05;66.81;101681.97;691708;28;1709;-82
2022/04/27 00:58:12;;;;;;;16.15;9.80;;;;;;;7.10;66.81;101688.34;690366;28;1216;-82
2022/04/27 00:58:33;;;;;;;15.88;10.00;;;;;;;7.05;67.08;101687.16;692672;28;1370;-83
2022/04/27 00:58:53;;;;;;;14.33;10.40;;;;;;;7.04;67.11;101685.38;696016;28;1074;-82
2022/04/27 00:59:14;;;;;;;14.50;10.50;;;;;;;7.09;66.63;101694.34;690126;28;1273;-82
2022/04/27 00:59:35;;;;;;;14.68;10.23;;;;;;;7.01;66.84;101680.03;687045;28;1191;-82
2022/04/27 00:59:56;;;;;;;14.70;9.85;;;;;;;7.02;66.86;101679.22;684760;28;1970;-82
2022/04/27 01:00:17;;;;;;;14.77;9.90;;;;;;;7.04;67.11;101684.47;692993;28;1282;-82
2022/04/27 01:00:37;;;;;;;16.15;10.38;;;;;;;6.98;66.56;101675.56;694826;28;1310;-82
2022/04/27 01:00:58;;;;;;;17.57;10.10;;;;;;;6.99;66.90;101673.84;695796;28;1104;-82
2022/04/27 01:01:19;;;;;;;17.13;9.85;;;;;;;7.09;66.75;101689.16;687582;28;1378;-83
2022/04/27 01:01:40;;;;;;;15.30;10.20;;;;;;;7.07;67.15;101693.34;692919;28;1300;-83
2022/04/27 01:02:02;;;;;;;14.57;10.57;;;;;;;6.99;67.00;101673.84;693179;28;977;-82
2022/04/27 01:02:42;;;;;;;14.80;11.30;;;;;;;7.11;66.77;101694.41;693111;28;794;-82
2022/04/27 01:03:03;;;;;;;13.98;10.30;;;;;;;7.09;66.92;101693.44;682682;28;1526;-82
2022/04/27 01:03:24;;;;;;;14.07;10.05;;;;;;;7.07;67.13;101695.94;690467;28;1357;-82
2022/04/27 01:03:45;;;;;;;15.68;10.38;;;;;;;7.04;67.07;101687.06;690013;28;1709;-82
2022/04/27 01:04:07;;;;;;;16.97;10.63;;;;;;;7.04;66.80;101687.97;686574;28;1072;-82
2022/04/27 01:04:28;;;;;;;17.55;10.45;;;;;;;7.02;66.84;101684.41;690313;28;1311;-83
2022/04/27 01:04:49;;;;;;;16.45;10.18;;;;;;;7.01;66.90;101681.72;695635;28;1235;-82
2022/04/27 01:05:11;;;;;;;16.75;10.32;;;;;;;7.02;66.85;101687.00;690065;28;1550;-82
2022/04/27 01:05:32;;;;;;;15.80;10.43;;;;;;;7.01;66.99;101680.03;685444;28;1125;-82
2022/04/27 01:05:54;;;;;;;14.30;10.70;;;;;;;7.04;67.10;101687.97;690251;28;1011;-82
2022/04/27 01:06:15;;;;;;;15.77;11.20;;;;;;;7.04;66.94;101685.38;690480;28;1011;-82
2022/04/27 01:06:40;;;;;;;15.87;10.90;;;;;;;7.08;66.94;101689.97;690644;28;1457;-82
2022/04/27 01:07:00;;;;;;;16.20;10.30;;;;;;;7.05;67.07;101691.47;695813;28;1348;-82
2022/04/27 01:07:23;;;;;;;16.83;10.30;;;;;;;7.02;66.99;101688.69;692386;28;1169;-82
2022/04/27 01:07:43;;;;;;;16.13;10.45;;;;;;;7.11;67.15;101703.09;687278;28;1134;-82
2022/04/27 01:08:04;;;;;;;15.15;9.98;;;;;;;7.02;66.99;101683.50;687589;28;1287;-82
2022/04/27 01:08:25;;;;;;;13.20;9.60;;;;;;;7.03;66.88;101681.00;692355;28;1230;-82
2022/04/27 01:08:46;;;;;;;14.50;9.57;;;;;;;7.02;66.98;101679.22;689778;28;1095;-83
2022/04/27 01:09:07;;;;;;;15.80;10.30;;;;;;;7.04;66.53;101681.88;690363;28;990;-82
2022/04/27 01:09:48;;;;;;;15.38;10.70;;;;;;;7.13;67.06;101701.47;686976;28;1753;-82
2022/04/27 01:10:10;;;;;;;15.55;10.60;;;;;;;7.06;66.97;101686.34;690293;28;1380;-83
2022/04/27 01:10:33;;;;;;;15.65;10.60;;;;;;;7.06;67.17;101691.56;691234;28;1270;-82
2022/04/27 01:10:54;;;;;;;16.20;10.90;;;;;;;7.12;66.83;101698.78;692924;28;912;-82
2022/04/27 01:11:15;;;;;;;15.93;11.00;;;;;;;7.06;66.83;101688.94;692908;28;1379;-82
2022/04/27 01:11:42;;;;;;;15.70;11.05;;;;;;;7.04;66.84;101685.38;695504;28;1157;-82
2022/04/27 01:12:04;;;;;;;15.43;11.10;;;;;;;7.03;67.06;101680.09;692988;28;1390;-82
2022/04/27 01:12:27;;;;;;;17.35;10.70;;;;;;;7.05;67.25;101681.97;684672;28;1445;-82
2022/04/27 01:13:02;;;;;;;17.63;10.88;;;;;;;7.07;66.89;101690.72;687616;28;1181;-82
2022/04/27 01:13:23;;;;;;;16.55;11.30;;;;;;;7.08;66.82;101691.66;692958;28;815;-82
2022/04/27 01:13:50;;;;;;;16.92;11.60;;;;;;;7.04;66.89;101695.75;695630;28;1285;-82
2022/04/27 01:14:23;;;;;;;16.20;10.82;;;;;;;7.00;67.13;101683.41;693117;28;771;-82
2022/04/27 01:14:47;;;;;;;14.60;10.60;;;;;;;7.10;66.58;101700.41;686180;28;1461;-82
2022/04/27 01:15:09;;;;;;;16.48;10.90;;;;;;;6.98;66.75;101688.53;690122;28;1196;-82
2022/04/27 01:15:36;;;;;;;16.20;10.75;;;;;;;7.00;66.91;101691.19;692688;28;1795;-82
2022/04/27 01:15:56;;;;;;;16.48;10.18;;;;;;;7.00;66.81;101698.97;690357;28;1003;-82
2022/04/27 01:16:17;;;;;;;16.50;9.77;;;;;;;7.05;66.87;101707.06;690268;28;905;-82
2022/04/27 01:16:38;;;;;;;17.87;9.57;;;;;;;6.99;66.61;101697.19;695023;28;1581;-82
2022/04/27 01:16:58;;;;;;;16.67;9.82;;;;;;;6.98;67.21;101698.00;687639;28;1005;-82
2022/04/27 01:17:21;;;;;;;15.30;9.93;;;;;;;6.98;66.77;101698.00;687697;28;1159;-82
2022/04/27 01:17:42;;;;;;;12.88;10.10;;;;;;;6.93;66.96;101691.66;690440;28;1457;-82
2022/04/27 01:18:03;;;;;;;13.82;10.35;;;;;;;7.03;66.97;101704.38;687947;28;1142;-82
2022/04/27 01:18:27;;;;;;;14.05;10.55;;;;;;;6.93;67.17;101691.66;691895;28;1605;-83
2022/04/27 01:18:49;;;;;;;13.80;10.57;;;;;;;7.01;66.54;101705.97;687414;28;1064;-82
2022/04/27 01:19:11;;;;;;;14.38;10.82;;;;;;;6.92;66.51;101684.66;690299;28;1486;-81
2022/04/27 01:19:32;;;;;;;15.48;11.10;;;;;;;6.97;67.55;101688.44;687021;28;1392;-82
2022/04/27 01:19:53;;;;;;;15.52;11.23;;;;;;;7.00;67.12;101698.97;692057;28;1922;-82
2022/04/27 01:20:14;;;;;;;14.32;10.80;;;;;;;7.01;67.02;101700.78;693049;28;1118;-81
2022/04/27 01:20:39;;;;;;;12.93;10.15;;;;;;;6.96;67.38;101684.06;695355;28;1334;-82
2022/04/27 01:21:02;;;;;;;15.70;10.88;;;;;;;6.97;66.79;101686.75;687652;28;1303;-82
2022/04/27 01:21:26;;;;;;;17.83;11.15;;;;;;;6.95;66.83;101690.06;695723;28;1282;-82
2022/04/27 01:21:57;;;;;;;16.58;11.30;;;;;;;7.03;66.91;101704.38;695692;28;1086;-82
2022/04/27 01:22:20;;;;;;;15.48;10.90;;;;;;;7.03;67.06;101704.38;692366;28;1233;-82
2022/04/27 01:22:40;;;;;;;16.63;10.90;;;;;;;7.01;66.70;101694.69;688121;28;1405;-82
2022/04/27 01:23:01;;;;;;;17.27;10.85;;;;;;;6.97;66.99;101693.63;685002;28;1079;-82
2022/04/27 01:23:22;;;;;;;16.60;10.75;;;;;;;6.99;66.83;101699.78;687660;28;1164;-82
2022/04/27 01:23:42;;;;;;;16.13;10.70;;;;;;;6.93;66.75;101692.56;685065;28;1395;-82
2022/04/27 01:24:05;;;;;;;15.23;10.88;;;;;;;6.97;66.67;101696.22;687507;28;1285;-82
2022/04/27 01:24:25;;;;;;;15.50;11.43;;;;;;;7.04;67.18;101715.63;689959;28;1087;-82
2022/04/27 01:24:46;;;;;;;16.07;11.63;;;;;;;6.94;66.91;101694.34;684633;28;1670;-82
2022/04/27 01:25:08;;;;;;;18.60;11.60;;;;;;;6.93;66.84;101681.28;690237;28;1477;-82
2022/04/27 01:25:48;;;;;;;18.67;11.20;;;;;;;7.02;66.56;101710.38;690887;28;1525;-82
2022/04/27 01:26:09;;;;;;;15.43;10.57;;;;;;;6.95;66.72;101695.25;690186;28;1047;-82
2022/04/27 01:26:32;;;;;;;15.27;10.60;;;;;;;6.93;67.15;101691.66;687404;28;1589;-82
2022/04/27 01:26:54;;;;;;;17.08;11.27;;;;;;;6.93;66.82;101700.34;690195;28;1064;-82
2022/04/27 01:27:14;;;;;;;16.70;11.35;;;;;;;6.99;67.11;101707.56;690361;28;943;-82
2022/04/27 01:27:41;;;;;;;15.70;11.40;;;;;;;6.99;67.02;101699.78;692887;28;1040;-81
2022/04/27 01:28:02;;;;;;;14.00;11.13;;;;;;;6.95;66.97;101697.84;687659;28;826;-82
2022/04/27 01:28:24;;;;;;;14.40;10.87;;;;;;;6.92;66.67;101692.44;695730;28;1170;-82
2022/04/27 01:28:45;;;;;;;14.40;10.70;;;;;;;6.95;66.99;101705.63;692769;28;1420;-82
2022/04/27 01:29:06;;;;;;;14.68;10.90;;;;;;;6.94;66.99;101701.25;684872;28;1097;-82
2022/04/27 01:29:26;;;;;;;14.90;11.00;;;;;;;6.97;67.15;101704.00;687795;28;1317;-82
2022/04/27 01:29:47;;;;;;;16.00;11.40;;;;;;;6.94;67.04;101703.84;693009;28;1527;-83
2022/04/27 01:30:10;;;;;;;18.30;11.40;;;;;;;6.89;66.65;101695.78;689453;28;1280;-83
2022/04/27 01:30:31;;;;;;;19.73;11.70;;;;;;;6.91;66.92;101696.75;687397;28;1088;-82
2022/04/27 01:30:57;;;;;;;18.77;11.48;;;;;;;6.88;66.90;101695.69;686031;28;1747;-82
2022/04/27 01:31:17;;;;;;;16.40;11.57;;;;;;;6.87;66.71;101694.78;690280;28;988;-82
2022/04/27 01:31:38;;;;;;;14.30;11.20;;;;;;;6.87;66.79;101701.69;692217;28;1143;-82
2022/04/27 01:32:01;;;;;;;15.23;11.70;;;;;;;6.83;66.76;101696.28;690670;28;1402;-82
2022/04/27 01:32:22;;;;;;;16.73;11.60;;;;;;;6.83;66.95;101695.44;685044;28;827;-82
2022/04/27 01:32:43;;;;;;;16.77;11.05;;;;;;;6.84;66.92;101697.22;688910;28;1547;-83
2022/04/27 01:33:10;;;;;;;17.60;10.70;;;;;;;6.80;66.66;101688.34;687545;28;1143;-82
2022/04/27 01:33:34;;;;;;;16.50;10.35;;;;;;;6.80;67.05;101696.13;687413;28;1453;-82
2022/04/27 01:33:55;;;;;;;16.30;10.80;;;;;;;6.85;66.62;101705.09;690222;28;1395;-82
2022/04/27 01:34:17;;;;;;;15.48;10.70;;;;;;;6.87;66.81;101715.53;687638;28;1359;-82
2022/04/27 01:34:38;;;;;;;15.48;10.75;;;;;;;6.79;66.75;101702.13;686626;28;1283;-82
2022/04/27 01:34:58;;;;;;;14.60;10.45;;;;;;;6.88;66.96;101719.03;687611;28;1651;-82
2022/04/27 01:35:19;;;;;;;13.47;10.20;;;;;;;6.78;66.80;101704.63;687600;28;1054;-81
2022/04/27 01:35:40;;;;;;;14.90;10.07;;;;;;;6.78;67.11;101702.03;689570;28;1138;-83
2022/04/27 01:36:03;;;;;;;16.08;10.60;;;;;;;6.80;66.87;101714.28;692934;28;1102;-82
2022/04/27 01:36:25;;;;;;;15.95;10.73;;;;;;;6.73;66.68;101698.28;690249;28;1376;-82
2022/04/27 01:36:45;;;;;;;15.75;10.70;;;;;;;6.72;66.70;101697.38;687556;28;1241;-81
2022/04/27 01:38:00;;;;;;;14.50;10.13;;;;;;;6.77;66.87;101708.94;695640;28;1221;-82
2022/04/27 01:38:21;;;;;;;13.85;10.52;;;;;;;6.80;66.89;101713.38;691447;28;1145;-82
2022/04/27 01:38:42;;;;;;;13.60;10.37;;;;;;;6.73;66.92;101703.50;691993;28;1591;-82
2022/04/27 01:39:04;;;;;;;13.02;9.98;;;;;;;6.73;66.98;101709.56;687525;28;1096;-81
2022/04/27 01:39:24;;;;;;;13.60;10.10;;;;;;;6.69;66.79;101699.78;684780;28;1481;-81
2022/04/27 01:39:45;;;;;;;14.77;10.50;;;;;;;6.79;67.21;101719.38;687110;28;1907;-82
2022/04/27 01:40:06;;;;;;;15.68;10.70;;;;;;;6.72;67.00;101710.34;695588;28;1207;-81
2022/04/27 01:40:27;;;;;;;16.80;10.80;;;;;;;6.79;66.94;101720.28;693463;28;1246;-81
2022/04/27 01:40:53;;;;;;;17.45;10.43;;;;;;;6.73;66.84;101712.13;695668;28;1200;-81
2022/04/27 01:41:14;;;;;;;16.50;10.43;;;;;;;6.66;67.12;101696.97;692828;28;1271;-81
2022/04/27 01:41:36;;;;;;;15.18;10.50;;;;;;;6.77;67.14;101719.31;690015;28;1139;-82
2022/04/27 01:41:59;;;;;;;13.55;10.52;;;;;;;6.70;67.20;101706.75;689764;28;1248;-81
2022/04/27 01:42:20;;;;;;;13.27;9.77;;;;;;;6.76;67.20;101720.09;695551;28;1369;-82
2022/04/27 01:42:40;;;;;;;13.50;9.90;;;;;;;6.78;66.91;101717.59;695176;28;1222;-82
2022/04/27 01:43:01;;;;;;;14.30;10.20;;;;;;;6.71;67.21;101716.34;695846;28;966;-81
2022/04/27 01:43:24;;;;;;;15.40;10.50;;;;;;;6.68;67.39;101708.34;690215;28;1270;-82
2022/04/27 01:43:44;;;;;;;15.40;10.10;;;;;;;6.71;66.73;101711.16;687650;28;1032;-82
2022/04/27 01:44:06;;;;;;;15.93;9.87;;;;;;;6.71;67.03;101711.16;682317;29;994;-81
2022/04/27 01:44:26;;;;;;;16.40;10.40;;;;;;;6.69;67.05;101713.63;688228;28;1066;-81
2022/04/27 01:44:47;;;;;;;15.67;10.80;;;;;;;6.67;67.04;101706.56;692884;28;1793;-81